TimeMDT,TemperatureF,Dew PointF,Humidity,Sea Level PressureIn,VisibilityMPH,Wind Direction,Wind SpeedMPH,Gust SpeedMPH,PrecipitationIn,Events,Conditions,WindDirDegrees,DateUTC
12:53 AM,61.0,54.0,78,30.02,10.0,Calm,Calm,-,N/A,,Clear,0,2013-07-19 06:53:00
1:53 AM,60.1,52.0,75,30.01,10.0,SW,3.5,-,N/A,,Clear,230,2013-07-19 07:53:00
2:53 AM,63.0,55.9,78,30.00,10.0,Calm,Calm,-,0.00,Rain,Light Rain,0,2013-07-19 08:53:00
3:53 AM,60.1,54.0,80,30.00,10.0,Calm,Calm,-,0.00,,Partly Cloudy,0,2013-07-19 09:53:00
4:53 AM,59.0,53.1,81,30.01,10.0,South,4.6,-,N/A,,Mostly Cloudy,190,2013-07-19 10:53:00
5:53 AM,57.9,52.0,81,30.02,10.0,SSW,4.6,-,N/A,,Mostly Cloudy,200,2013-07-19 11:53:00
6:53 AM,62.1,54.0,75,30.03,10.0,Calm,Calm,-,N/A,,Overcast,0,2013-07-19 12:53:00
7:32 AM,64.4,55.4,73,30.18,10.0,Calm,Calm,-,N/A,Thunderstorm,Overcast,0,2013-07-19 13:32:00
7:53 AM,66.9,52.0,59,30.04,10.0,Calm,Calm,-,N/A,,Overcast,0,2013-07-19 13:53:00
8:53 AM,70.0,52.0,53,30.06,10.0,SE,4.6,-,N/A,,Overcast,140,2013-07-19 14:53:00
9:53 AM,73.9,52.0,46,30.03,10.0,SSE,12.7,-,N/A,,Mostly Cloudy,160,2013-07-19 15:53:00
10:53 AM,79.0,55.0,44,30.02,10.0,SSE,11.5,23.0,N/A,,Clear,150,2013-07-19 16:53:00
11:53 AM,82.0,54.0,38,29.99,10.0,SSE,15.0,-,N/A,,Clear,160,2013-07-19 17:53:00
12:53 PM,84.0,54.0,35,29.96,10.0,SE,17.3,20.7,N/A,,Clear,140,2013-07-19 18:53:00
1:53 PM,86.0,54.0,33,29.94,10.0,SE,16.1,26.5,N/A,,Clear,130,2013-07-19 19:53:00
2:53 PM,86.0,48.9,28,29.91,10.0,Calm,Calm,-,N/A,,Clear,0,2013-07-19 20:53:00
3:53 PM,88.0,51.1,28,29.88,10.0,ESE,6.9,-,N/A,,Scattered Clouds,120,2013-07-19 21:53:00
4:53 PM,88.0,50.0,27,29.86,10.0,SSE,10.4,-,N/A,,Clear,150,2013-07-19 22:53:00
5:53 PM,84.9,51.1,31,29.85,10.0,SE,10.4,-,N/A,,Clear,130,2013-07-19 23:53:00
6:53 PM,86.0,53.1,32,29.82,10.0,ESE,6.9,-,N/A,,Clear,120,2013-07-20 00:53:00
7:53 PM,80.1,53.1,39,29.82,10.0,East,11.5,23.0,N/A,,Clear,80,2013-07-20 01:53:00
8:53 PM,75.9,54.0,46,29.83,10.0,East,16.1,19.6,N/A,,Scattered Clouds,100,2013-07-20 02:53:00
9:53 PM,71.1,53.1,53,29.86,10.0,Calm,Calm,-,N/A,,Partly Cloudy,0,2013-07-20 03:53:00
10:53 PM,69.1,53.1,57,29.86,10.0,ENE,6.9,-,N/A,,Partly Cloudy,60,2013-07-20 04:53:00
11:53 PM,64.9,54.0,68,29.85,10.0,North,3.5,-,N/A,,Clear,350,2013-07-20 05:53:00